PWSweather.com
Personal Weather Stations
Station Observations
WISCHPK61
Green Bay Schmitt Park, Green Bay, WI 54311

Green Bay Schmitt ParkGreen Bay, WI 54311

Lat: 44.514277, Lon: -87.935067

Elevation: 735

Station Type: Acu Rite Pro Weather Center model 02032C

http://greenbayweathercam.com

High Low Average
Temperature 79.9°F26.6°C 63.7°F17.6°C 69.7°F20.9°C
Dew Point 79.6°F26.4°C 63.4°F17.4°C 69.4°F20.8°C
Winds 1.2 mph 1.9 kmh Calm Calm Calm SWCalm SW
Wind Gusts 2.3 mph3.7 kmh -- --
Humidity 99% 99% 99%
Pressure 29.38 in994.9 mb 29.29 in991.9 mb -
Precipitation 0.00 in0.0 mm - -
Hour Temp Dew Point Humidity Winds Wind Gusts Pressure Precip Precip Rate Daily Precip Total
12:00 AM 68.2°F20.1°C 67.9°F19.9°C 99% Calm Calm -- 29.34 in993.6 mb - 0.00 in0.0 mm 0.00 in0.0 mm
01:00 AM 67.3°F19.6°C 67.0°F19.4°C 99% Calm Calm -- 29.34 in993.6 mb - 0.00 in0.0 mm 0.00 in0.0 mm
02:00 AM 66.2°F19.0°C 65.9°F18.8°C 99% Calm Calm -- 29.34 in993.6 mb - 0.00 in0.0 mm 0.00 in0.0 mm
03:00 AM 65.1°F18.4°C 64.8°F18.2°C 99% Calm Calm -- 29.34 in993.6 mb - 0.00 in0.0 mm 0.00 in0.0 mm
04:00 AM 64.6°F18.1°C 64.3°F17.9°C 99% Calm Calm -- 29.35 in993.9 mb - 0.00 in0.0 mm 0.00 in0.0 mm
05:00 AM 64.6°F18.1°C 64.3°F17.9°C 99% Calm Calm -- 29.36 in994.2 mb - 0.00 in0.0 mm 0.00 in0.0 mm
06:00 AM 64.8°F18.2°C 64.5°F18.1°C 99% Calm Calm -- 29.37 in994.6 mb - 0.00 in0.0 mm 0.00 in0.0 mm
07:00 AM 65.3°F18.5°C 65.0°F18.3°C 99% Calm Calm -- 29.38 in994.9 mb - 0.00 in0.0 mm 0.00 in0.0 mm
08:00 AM 66.7°F19.3°C 66.4°F19.1°C 99% Calm Calm -- 29.37 in994.6 mb - 0.00 in0.0 mm 0.00 in0.0 mm
09:00 AM 68.5°F20.3°C 68.2°F20.1°C 99% Calm Calm 1.2 mph1.9 kmh 29.36 in994.2 mb - 0.00 in0.0 mm 0.00 in0.0 mm
10:00 AM 70.0°F21.1°C 69.7°F20.9°C 99% 1.2 mph W1.9 kmh W 1.2 mph1.9 kmh 29.36 in994.2 mb - 0.00 in0.0 mm 0.00 in0.0 mm
11:00 AM 72.7°F22.6°C 72.4°F22.4°C 99% 1.2 mph WNW1.9 kmh WNW 2.3 mph3.7 kmh 29.36 in994.2 mb - 0.00 in0.0 mm 0.00 in0.0 mm
12:00 PM 75.7°F24.3°C 75.4°F24.1°C 99% Calm Calm 2.3 mph3.7 kmh 29.35 in993.9 mb - 0.00 in0.0 mm 0.00 in0.0 mm
01:00 PM 79.9°F26.6°C 79.6°F26.4°C 99% 1.2 mph NW1.9 kmh NW 1.2 mph1.9 kmh 29.34 in993.6 mb - 0.00 in0.0 mm 0.00 in0.0 mm
02:00 PM 76.7°F24.8°C 76.4°F24.7°C 99% 1.2 mph WNW1.9 kmh WNW 1.2 mph1.9 kmh 29.32 in992.9 mb - 0.00 in0.0 mm 0.00 in0.0 mm
03:00 PM 76.1°F24.5°C 75.8°F24.3°C 99% Calm Calm -- 29.31 in992.6 mb - 0.00 in0.0 mm 0.00 in0.0 mm
04:00 PM 76.8°F24.9°C 76.5°F24.7°C 99% Calm Calm -- 29.30 in992.2 mb - 0.00 in0.0 mm 0.00 in0.0 mm
05:00 PM 75.7°F24.3°C 75.4°F24.1°C 99% Calm Calm -- 29.30 in992.2 mb - 0.00 in0.0 mm 0.00 in0.0 mm
06:00 PM 73.6°F23.1°C 73.3°F22.9°C 99% Calm Calm -- 29.29 in991.9 mb - 0.00 in0.0 mm 0.00 in0.0 mm
07:00 PM 70.6°F21.4°C 70.3°F21.3°C 99% Calm Calm -- 29.29 in991.9 mb - 0.00 in0.0 mm 0.00 in0.0 mm
08:00 PM 68.2°F20.1°C 67.9°F19.9°C 99% Calm Calm -- 29.29 in991.9 mb - 0.00 in0.0 mm 0.00 in0.0 mm
09:00 PM 66.3°F19.1°C 66.0°F18.9°C 99% Calm Calm -- 29.30 in992.2 mb - 0.00 in0.0 mm 0.00 in0.0 mm
10:00 PM 64.9°F18.3°C 64.6°F18.1°C 99% Calm Calm -- 29.29 in991.9 mb - 0.00 in0.0 mm 0.00 in0.0 mm
11:00 PM 63.7°F17.6°C 63.4°F17.4°C 99% Calm Calm -- 29.29 in991.9 mb - 0.00 in0.0 mm 0.00 in0.0 mm